<?xml version="1.0" encoding="utf-8"?>
<gpx xmlns:xsi="http://www.w3.org/2001/XMLSchema-instance" xmlns:xsd="http://www.w3.org/2001/XMLSchema" version="1.1" creator="Shapelink.com" xmlns="http://www.topografix.com/GPX/1/1" xmlns:gpxtpx="http://www.garmin.com/xmlschemas/TrackPointExtension/v1">
  <metadata>
    <name>Övrigt 1.51 km, 2019-02-01</name>
    <desc></desc>
    <author><name>Marian Moron</name></author> 
    <time>2019-02-01T20:44:37Z</time>
  </metadata>
  <trk>
    <name>Övrigt 1.51 km, 2019-02-01</name>
    <trkseg>
      <trkpt lat="51.22917619209" lon="4.458047122486">
        <ele>18.2</ele>
        <time>2019-02-01T20:44:37Z</time>
      </trkpt>
      <trkpt lat="51.229143670318" lon="4.458085260131">
        <ele>22.6</ele>
        <time>2019-02-01T20:44:41Z</time>
      </trkpt>
      <trkpt lat="51.228760701307" lon="4.45815156096">
        <ele>12.6</ele>
        <time>2019-02-01T20:44:59Z</time>
      </trkpt>
      <trkpt lat="51.228567749969" lon="4.458334370199">
        <ele>10.8</ele>
        <time>2019-02-01T20:45:21Z</time>
      </trkpt>
      <trkpt lat="51.228669673873" lon="4.459045155319">
        <ele>6.6</ele>
        <time>2019-02-01T20:45:50Z</time>
      </trkpt>
      <trkpt lat="51.228680067429" lon="4.459151186354">
        <ele>6.6</ele>
        <time>2019-02-01T20:45:56Z</time>
      </trkpt>
      <trkpt lat="51.228586273968" lon="4.459290325894">
        <ele>8.6</ele>
        <time>2019-02-01T20:46:28Z</time>
      </trkpt>
      <trkpt lat="51.228531791618" lon="4.459357297275">
        <ele>13</ele>
        <time>2019-02-01T20:46:59Z</time>
      </trkpt>
      <trkpt lat="51.22847630344" lon="4.459503226154">
        <ele>13.4</ele>
        <time>2019-02-01T20:47:11Z</time>
      </trkpt>
      <trkpt lat="51.228415031751" lon="4.459686035393">
        <ele>12.6</ele>
        <time>2019-02-01T20:47:20Z</time>
      </trkpt>
      <trkpt lat="51.228333056769" lon="4.460207473392">
        <ele>10</ele>
        <time>2019-02-01T20:47:46Z</time>
      </trkpt>
      <trkpt lat="51.228186373519" lon="4.460377039229">
        <ele>7.2</ele>
        <time>2019-02-01T20:47:59Z</time>
      </trkpt>
      <trkpt lat="51.228233647435" lon="4.460489356689">
        <ele>6.6</ele>
        <time>2019-02-01T20:48:13Z</time>
      </trkpt>
      <trkpt lat="51.228450571007" lon="4.460738466757">
        <ele>6.4</ele>
        <time>2019-02-01T20:48:39Z</time>
      </trkpt>
      <trkpt lat="51.228763467334" lon="4.461258647471">
        <ele>11.8</ele>
        <time>2019-02-01T20:49:11Z</time>
      </trkpt>
      <trkpt lat="51.228966393133" lon="4.461244565879">
        <ele>13.8</ele>
        <time>2019-02-01T20:49:28Z</time>
      </trkpt>
      <trkpt lat="51.229027245727" lon="4.461180611982">
        <ele>23.6</ele>
        <time>2019-02-01T20:49:43Z</time>
      </trkpt>
      <trkpt lat="51.229303094056" lon="4.461092685851">
        <ele>32.2</ele>
        <time>2019-02-01T20:50:05Z</time>
      </trkpt>
      <trkpt lat="51.229328491213" lon="4.46107935863">
        <ele>32.6</ele>
        <time>2019-02-01T20:50:07Z</time>
      </trkpt>
      <trkpt lat="51.229735516277" lon="4.461137361378">
        <ele>18.2</ele>
        <time>2019-02-01T20:50:51Z</time>
      </trkpt>
      <trkpt lat="51.229911955272" lon="4.461730464622">
        <ele>10</ele>
        <time>2019-02-01T20:51:30Z</time>
      </trkpt>
      <trkpt lat="51.230015471737" lon="4.461998936879">
        <ele>2</ele>
        <time>2019-02-01T20:52:09Z</time>
      </trkpt>
      <trkpt lat="51.230187971239" lon="4.46207345197">
        <ele>6.2</ele>
        <time>2019-02-01T20:52:31Z</time>
      </trkpt>
      <trkpt lat="51.230633469224" lon="4.461893157301">
        <ele>16.4</ele>
        <time>2019-02-01T20:53:00Z</time>
      </trkpt>
      <trkpt lat="51.230803537975" lon="4.461821240599">
        <ele>15</ele>
        <time>2019-02-01T20:53:15Z</time>
      </trkpt>
      <trkpt lat="51.230893475762" lon="4.461813026337">
        <ele>2.6</ele>
        <time>2019-02-01T20:53:44Z</time>
      </trkpt>
      <trkpt lat="51.230841843258" lon="4.461927690729">
        <ele>0.6</ele>
        <time>2019-02-01T20:53:54Z</time>
      </trkpt>
      <trkpt lat="51.230399530395" lon="4.462012683195">
        <ele>24.4</ele>
        <time>2019-02-01T20:54:25Z</time>
      </trkpt>
      <trkpt lat="51.230058219427" lon="4.462176381702">
        <ele>24</ele>
        <time>2019-02-01T20:55:01Z</time>
      </trkpt>
      <trkpt lat="51.230051597726" lon="4.462546107311">
        <ele>14.8</ele>
        <time>2019-02-01T20:55:19Z</time>
      </trkpt>
      <trkpt lat="51.230087807534" lon="4.462718942089">
        <ele>8.4</ele>
        <time>2019-02-01T20:55:30Z</time>
      </trkpt>
      <trkpt lat="51.23007556996" lon="4.462944918113">
        <ele>3</ele>
        <time>2019-02-01T20:56:02Z</time>
      </trkpt>
      <trkpt lat="51.229927294149" lon="4.462961514275">
        <ele>0</ele>
        <time>2019-02-01T20:56:21Z</time>
      </trkpt>
      <trkpt lat="51.229476180291" lon="4.463033933891">
        <ele>3.2</ele>
        <time>2019-02-01T20:57:03Z</time>
      </trkpt>
      <trkpt lat="51.229140485196" lon="4.46304239961">
        <ele>5.6</ele>
        <time>2019-02-01T20:57:38Z</time>
      </trkpt>
      <trkpt lat="51.229118021704" lon="4.46303234133">
        <ele>8.4</ele>
        <time>2019-02-01T20:57:41Z</time>
      </trkpt>
      <trkpt lat="51.229080303154" lon="4.462330524843">
        <ele>22.4</ele>
        <time>2019-02-01T20:58:20Z</time>
      </trkpt>
      <trkpt lat="51.229119530446" lon="4.462063645147">
        <ele>13.6</ele>
        <time>2019-02-01T20:59:01Z</time>
      </trkpt>
      <trkpt lat="51.229043338975" lon="4.461884943039">
        <ele>11.6</ele>
        <time>2019-02-01T20:59:21Z</time>
      </trkpt>
      <trkpt lat="51.228893051508" lon="4.461869687981">
        <ele>12.6</ele>
        <time>2019-02-01T20:59:35Z</time>
      </trkpt>
      <trkpt lat="51.228758941108" lon="4.461924337969">
        <ele>11.2</ele>
        <time>2019-02-01T20:59:50Z</time>
      </trkpt>
      <trkpt lat="51.228616784084" lon="4.461919811743">
        <ele>4</ele>
        <time>2019-02-01T21:00:09Z</time>
      </trkpt>
      <trkpt lat="51.228395501924" lon="4.461738511246">
        <ele>0.4</ele>
        <time>2019-02-01T21:00:25Z</time>
      </trkpt>
      <trkpt lat="51.228429867714" lon="4.461576572938">
        <ele>18.4</ele>
        <time>2019-02-01T21:00:56Z</time>
      </trkpt>
      <trkpt lat="51.228440428908" lon="4.461068965074">
        <ele>19.2</ele>
        <time>2019-02-01T21:01:21Z</time>
      </trkpt>
      <trkpt lat="51.228188971908" lon="4.460483237902">
        <ele>17</ele>
        <time>2019-02-01T21:01:51Z</time>
      </trkpt>
      <trkpt lat="51.228239263308" lon="4.460253238566">
        <ele>15.8</ele>
        <time>2019-02-01T21:02:23Z</time>
      </trkpt>
      <trkpt lat="51.228300870273" lon="4.459555193934">
        <ele>4.2</ele>
        <time>2019-02-01T21:03:01Z</time>
      </trkpt>
      <trkpt lat="51.228495246534" lon="4.459025625492">
        <ele>0</ele>
        <time>2019-02-01T21:03:40Z</time>
      </trkpt>
      <trkpt lat="51.228497761104" lon="4.458771402465">
        <ele>0</ele>
        <time>2019-02-01T21:04:14Z</time>
      </trkpt>
      <trkpt lat="51.22855676968" lon="4.45840385615">
        <ele>0</ele>
        <time>2019-02-01T21:04:42Z</time>
      </trkpt>
      <trkpt lat="51.228703033835" lon="4.458300926418">
        <ele>1</ele>
        <time>2019-02-01T21:05:02Z</time>
      </trkpt>
      <trkpt lat="51.22912338612" lon="4.458006470271">
        <ele>0</ele>
        <time>2019-02-01T21:05:49Z</time>
      </trkpt>
      <trkpt lat="51.229568045915" lon="4.457907228575">
        <ele>0</ele>
        <time>2019-02-01T21:06:50Z</time>
      </trkpt>
    </trkseg>
  </trk>
</gpx>